x

Edisto - 41 Nm Southeast Of Charleston, Sc (41004) Wave Buoy

10:50am - Sat 6th Feb 2016 All times are EST. -5 hours from GMT.

  • Sig Wave height 6.2ft
  • Swell Direction
  • Peak Period 6s
  • Average Period 5s
  • Wind
    25mph, 31mph gusts
  • Sea Temp 65°f
  • Air Temp 53°f
  • Sea Pressure 1026.5mb
  • Edisto - 41 Nm Southeast Of Charleston, Sc
  • Edisto - 41 Nm Southeast Of Charleston, Sc

More Historic Weather Station data

Upgrade to MSW Pro to gain access to the past 30 days of data for over 8000 Wavebouys and Weather Stations around the globe.

Join Pro

Comparision Forecast

View Surf forecast
   
Sat 02/06 10:50am 6ft 6s 5s 25 31 mph 1026.5mb 65f 53f
9:50am 7ft 5s 5s 27 31 mph 1026.8mb 65f 52f
8:50am 6ft 6s 5s 27 31 mph 1026.8mb 66f 52f
7:50am 6ft 10s 5s 25 34 mph 1026.4mb 66f 52f
6:50am 6ft 11s 5s 27 31 mph 1026.2mb 67f 51f
5:50am 6ft 10s 5s 27 31 mph 1026mb 67f 52f
4:50am 5ft 10s 6s 20 25 mph 1025.7mb 67f 53f
3:50am 4.5ft 10s 5s 20 25 mph 1025.8mb 67f 53f
2:50am 3.5ft 9s 5s 16 22 mph 1026.4mb 67f 52f
1:50am 3.5ft 6s 4s 13 20 mph 1027.2mb 67f 52f
12:50am 3.5ft 5s 5s 13 20 mph 1027.6mb 67f 51f
Fri 02/05 11:50pm 3.5ft 6s 4s 16 22 mph 1027.8mb 67f 51f
10:50pm 3.5ft 7s 5s 16 22 mph 1028.2mb 67f 52f
9:50pm 3.5ft 7s 4s 16 20 mph 1028.2mb 67f 51f
8:50pm 4ft 6s 5s 18 22 mph 1027.8mb 67f 51f
7:50pm 4ft 6s 4s 16 22 mph 1027.5mb 67f 51f
6:50pm 4.5ft 5s 5s 18 25 mph 1026.7mb 67f 50f
5:50pm 4.5ft 6s 5s 18 25 mph 1026.1mb 67f 50f
4:50pm 5ft 7s 5s 20 25 mph 1025.8mb 68f 49f
3:50pm 5ft 6s 5s 18 25 mph 1025.2mb 68f 49f
2:50pm 6ft 6s 5s 20 27 mph 1024.9mb 68f 48f
1:50pm 6ft 6s 5s 22 27 mph 1025.1mb 68f 49f
12:50pm 7ft 7s 5s 25 29 mph 1024.8mb 68f 49f
11:50am 7.5ft 7s 5s 27 34 mph 1024.7mb 68f 49f
10:50am 9ft 7s 5s 27 34 mph 1024.8mb 68f 49f
9:50am 8.5ft 6s 5s 29 36 mph 1024mb 68f 50f
8:50am 7ft 5s 5s 31 38 mph 1022.5mb 68f 52f
7:50am 6ft 6s 5s 29 34 mph 1021mb 68f 53f
6:50am 7ft 6s 5s 27 34 mph 1019.4mb 68f 52f
5:50am 7ft 6s 5s 27 34 mph 1017.5mb 69f 52f
4:50am 6.5ft 6s 5s 29 34 mph 1016mb 69f 52f
3:50am 6ft 6s 5s 27 31 mph 1014.9mb 68f 55f
2:50am 5.5ft 5s 5s 29 34 mph 1014.1mb 68f 56f
1:50am 5ft 8s 5s 22 29 mph 1014.2mb 68f 57f
12:50am 5ft 8s 5s 25 29 mph 1013.5mb 68f 57f
Thu 02/04 11:50pm 5ft 7s 5s 18 22 mph 1014.1mb 68f 55f
10:50pm 5ft 8s 5s 22 27 mph 1014mb 68f 56f
9:50pm 5ft 7s 5s 13 20 mph 1013.9mb 69f 61f
8:50pm 5ft 7s 6s 20 22 mph 1014.3mb 69f 60f
7:50pm 5ft 7s 6s 11 13 mph 1013.9mb 69f 68f
6:50pm 5ft 7s 6s 11 16 mph 1013.8mb 69f 68f
5:50pm 5ft 7s 6s 16 18 mph 1012.7mb 69f 67f
4:50pm 5ft 7s 6s 4 7 mph 1014.5mb 69f 66f
3:50pm 5.5ft 8s 6s 13 18 mph 1014.7mb 69f 65f
2:50pm 6ft 8s 6s 16 18 mph 1014.9mb 69f 65f
1:50pm 6ft 7s 6s 18 25 mph 1015.3mb 69f 66f
12:50pm 6ft 7s 6s 13 16 mph 1015.8mb 69f 65f
11:50am 6ft 7s 6s 16 18 mph 1017mb 69f 67f
10:50am 5.5ft 7s 5s 18 22 mph 1017.2mb 69f 69f
9:50am 5ft 8s 5s 22 29 mph 1016.7mb 69f 69f
8:50am 6ft 7s 6s 20 25 mph 1016mb 69f 69f
7:50am 6ft 8s 6s 13 18 mph 1015.5mb 69f 69f
6:50am 6ft 8s 6s 16 18 mph 1015.4mb 69f 71f
5:50am 7ft 8s 6s 16 20 mph 1015.2mb 69f 71f
4:50am 6ft 7s 6s 16 18 mph 1015.3mb 69f 71f
3:50am 7ft 7s 6s 13 16 mph 1015.1mb 69f 71f
2:50am 6.5ft 7s 6s 9 11 mph 1015.5mb 69f 71f
1:50am 7ft 7s 5s 18 22 mph 1015.4mb 69f 73f
12:50am 7ft 7s 6s 18 22 mph 1015.6mb 69f 73f
Wed 02/03 11:50pm 7ft 7s 5s 18 20 mph 1016mb 69f 72f
10:50pm 7.5ft 7s 6s 18 22 mph 1016.1mb 69f 72f
9:50pm 8ft 7s 6s 20 25 mph 1016.2mb 69f 73f
8:50pm 8ft 7s 6s 20 25 mph 1016mb 69f 73f
7:50pm 7ft 7s 6s 20 22 mph 1016.2mb 69f 73f
6:50pm 8ft 7s 6s 20 25 mph 1016mb 69f 73f
5:50pm 7ft 7s 6s 25 29 mph 1015.1mb 69f 73f
4:50pm 8ft 7s 6s 25 31 mph 1014.8mb 69f 73f
3:50pm 8ft 7s 6s 25 29 mph 1014.5mb 69f 73f
2:50pm 8ft 8s 6s 22 27 mph 1015.5mb 69f 73f
1:50pm 8ft 7s 6s 25 29 mph 1016.1mb 69f 72f
12:50pm 8ft 7s 5s 25 29 mph 1016.9mb 69f 72f
11:50am 8ft 7s 6s 22 29 mph 1017.9mb 69f 73f
10:50am 7.5ft 7s 5s 22 27 mph 1018.7mb 69f 73f
9:50am 7.5ft 6s 6s 20 25 mph 1018.9mb 69f 73f
8:50am 6.5ft 6s 5s 20 25 mph 1018.7mb 69f 73f
7:50am 7ft 7s 5s 22 27 mph 1018.1mb 69f 72f
6:50am 7ft 7s 6s 20 25 mph 1018.5mb 69f 72f
5:50am 6.5ft 7s 6s 18 22 mph 1018.3mb 69f 72f
4:50am 7.5ft 7s 6s 16 20 mph 1018.4mb 69f 72f
3:50am 7ft 6s 5s 20 22 mph 1017.7mb 69f 72f
2:50am 6.5ft 6s 5s 20 22 mph 1018.4mb 69f 72f
1:50am 5ft 5s 5s 20 25 mph 1019mb 69f 72f
12:50am 5ft 5s 5s 20 27 mph 1019.5mb 69f 72f
Tue 02/02 11:50pm 4.5ft 5s 4s 18 22 mph 1020.3mb 69f 72f
10:50pm 3.5ft 5s 4s 18 22 mph 1020.8mb 69f 72f
9:50pm 3.5ft 5s 5s 16 18 mph 1021.1mb 69f 72f
8:50pm 3.5ft 5s 5s 11 13 mph 1021.5mb 69f 70f
7:50pm 3ft 9s 5s 13 16 mph 1021.5mb 69f 69f
6:50pm 2.5ft 9s 5s 13 18 mph 1021.2mb 69f 69f
5:50pm 2.5ft 4s 4s 13 16 mph 1020.9mb 69f 69f
4:50pm 2.5ft 9s 4s 13 16 mph 1020.7mb 69f 69f